East Candia, New Hampshire
Current Conditions -  °F | °C
As of 10:53 AM on Sunday 21 Dec 2014 (Local Time) from KMHT Reporting Station
Overcast Overcast  
Wind Chill: 24°   Ceiling: 6000
Heat Index: 31°   Visibility: 10mi
Dew Point: 23°   Wind: 7mph
Humidity: 72%   Direction: 350°N
Pressure: 30.32"   Gusts: NA
Location:  43.05°N, 71.25°W
Report Text: KMHT 211553Z 35006KT 10SM SCT042 OVC060 M01/M05 A3032 RMK AO2 SLP285 T10061050
Loading
Personal Weather Stations






























Interactive Weather Map New forecast layout! Learn more

10-Day Weather Forecast

Advertisements
Track Severe Weather on mobile